sensor_id;sensor_type;location;lat;lon;timestamp;P1;durP1;ratioP1;P2;durP2;ratioP2
77495;SDS011;66600;48.378;9.948;2023-01-10T00:00:24;4.47;;;2.85;;
77495;SDS011;66600;48.378;9.948;2023-01-10T00:02:53;4.95;;;3.00;;
77495;SDS011;66600;48.378;9.948;2023-01-10T00:05:18;5.82;;;3.28;;
77495;SDS011;66600;48.378;9.948;2023-01-10T00:07:44;4.10;;;2.55;;
77495;SDS011;66600;48.378;9.948;2023-01-10T00:10:10;5.65;;;3.25;;
77495;SDS011;66600;48.378;9.948;2023-01-10T00:12:35;5.10;;;2.88;;
77495;SDS011;66600;48.378;9.948;2023-01-10T00:15:19;5.10;;;2.97;;
77495;SDS011;66600;48.378;9.948;2023-01-10T00:17:45;4.63;;;3.13;;
77495;SDS011;66600;48.378;9.948;2023-01-10T00:20:10;3.63;;;2.67;;
77495;SDS011;66600;48.378;9.948;2023-01-10T00:22:36;7.38;;;3.03;;
77495;SDS011;66600;48.378;9.948;2023-01-10T00:25:01;4.25;;;3.10;;
77495;SDS011;66600;48.378;9.948;2023-01-10T00:27:26;3.78;;;2.55;;
77495;SDS011;66600;48.378;9.948;2023-01-10T00:29:52;4.93;;;2.88;;
77495;SDS011;66600;48.378;9.948;2023-01-10T00:32:18;5.78;;;3.65;;
77495;SDS011;66600;48.378;9.948;2023-01-10T00:34:44;4.53;;;3.00;;
77495;SDS011;66600;48.378;9.948;2023-01-10T00:37:09;4.47;;;3.05;;
77495;SDS011;66600;48.378;9.948;2023-01-10T00:39:35;5.43;;;2.88;;
77495;SDS011;66600;48.378;9.948;2023-01-10T00:42:00;3.60;;;2.75;;
77495;SDS011;66600;48.378;9.948;2023-01-10T00:44:44;5.47;;;2.85;;
77495;SDS011;66600;48.378;9.948;2023-01-10T00:47:11;5.05;;;3.10;;
77495;SDS011;66600;48.378;9.948;2023-01-10T00:49:40;5.35;;;2.72;;
77495;SDS011;66600;48.378;9.948;2023-01-10T00:52:05;4.63;;;3.50;;
77495;SDS011;66600;48.378;9.948;2023-01-10T00:54:31;5.65;;;2.92;;
77495;SDS011;66600;48.378;9.948;2023-01-10T00:56:57;4.43;;;3.08;;
77495;SDS011;66600;48.378;9.948;2023-01-10T00:59:22;5.00;;;3.28;;
77495;SDS011;66600;48.378;9.948;2023-01-10T01:01:48;5.60;;;3.60;;
77495;SDS011;66600;48.378;9.948;2023-01-10T01:04:15;5.35;;;3.38;;
77495;SDS011;66600;48.378;9.948;2023-01-10T01:06:43;5.13;;;3.17;;
77495;SDS011;66600;48.378;9.948;2023-01-10T01:09:10;6.05;;;3.55;;
77495;SDS011;66600;48.378;9.948;2023-01-10T01:11:36;4.78;;;3.00;;
77495;SDS011;66600;48.378;9.948;2023-01-10T01:14:01;4.75;;;3.20;;
77495;SDS011;66600;48.378;9.948;2023-01-10T01:16:26;4.47;;;3.15;;
77495;SDS011;66600;48.378;9.948;2023-01-10T01:18:52;4.88;;;3.28;;
77495;SDS011;66600;48.378;9.948;2023-01-10T01:21:17;5.10;;;2.85;;
77495;SDS011;66600;48.378;9.948;2023-01-10T01:23:42;3.45;;;2.20;;
77495;SDS011;66600;48.378;9.948;2023-01-10T01:26:08;4.38;;;2.90;;
77495;SDS011;66600;48.378;9.948;2023-01-10T01:28:35;3.78;;;2.70;;
77495;SDS011;66600;48.378;9.948;2023-01-10T01:31:05;4.40;;;2.72;;
77495;SDS011;66600;48.378;9.948;2023-01-10T01:33:32;5.13;;;2.95;;
77495;SDS011;66600;48.378;9.948;2023-01-10T01:35:57;4.35;;;2.75;;
77495;SDS011;66600;48.378;9.948;2023-01-10T01:38:22;4.32;;;2.70;;
77495;SDS011;66600;48.378;9.948;2023-01-10T01:40:48;4.45;;;2.70;;
77495;SDS011;66600;48.378;9.948;2023-01-10T01:43:23;3.72;;;2.67;;
77495;SDS011;66600;48.378;9.948;2023-01-10T01:45:51;5.15;;;2.60;;
77495;SDS011;66600;48.378;9.948;2023-01-10T01:51:10;4.22;;;2.60;;
77495;SDS011;66600;48.378;9.948;2023-01-10T01:56:24;4.63;;;2.65;;
77495;SDS011;66600;48.378;9.948;2023-01-10T01:58:59;4.57;;;2.63;;
77495;SDS011;66600;48.378;9.948;2023-01-10T02:01:49;3.47;;;2.28;;
77495;SDS011;66600;48.378;9.948;2023-01-10T02:04:23;3.85;;;2.70;;
77495;SDS011;66600;48.378;9.948;2023-01-10T02:06:53;4.28;;;2.95;;
77495;SDS011;66600;48.378;9.948;2023-01-10T02:09:22;4.50;;;2.53;;
77495;SDS011;66600;48.378;9.948;2023-01-10T02:11:51;4.97;;;2.70;;
77495;SDS011;66600;48.378;9.948;2023-01-10T02:14:16;3.67;;;2.47;;
77495;SDS011;66600;48.378;9.948;2023-01-10T02:16:44;3.75;;;2.42;;
77495;SDS011;66600;48.378;9.948;2023-01-10T02:19:13;3.95;;;2.42;;
77495;SDS011;66600;48.378;9.948;2023-01-10T02:28:18;3.63;;;2.45;;
77495;SDS011;66600;48.378;9.948;2023-01-10T02:36:19;5.00;;;2.80;;
77495;SDS011;66600;48.378;9.948;2023-01-10T02:39:14;4.40;;;2.42;;
77495;SDS011;66600;48.378;9.948;2023-01-10T02:42:03;4.25;;;2.35;;
77495;SDS011;66600;48.378;9.948;2023-01-10T02:44:33;4.05;;;2.50;;
77495;SDS011;66600;48.378;9.948;2023-01-10T02:47:22;4.15;;;2.45;;
77495;SDS011;66600;48.378;9.948;2023-01-10T02:49:48;4.50;;;2.28;;
77495;SDS011;66600;48.378;9.948;2023-01-10T02:52:20;3.55;;;2.30;;
77495;SDS011;66600;48.378;9.948;2023-01-10T02:54:52;2.63;;;1.70;;
77495;SDS011;66600;48.378;9.948;2023-01-10T02:57:47;2.67;;;1.77;;
77495;SDS011;66600;48.378;9.948;2023-01-10T03:03:40;2.67;;;1.70;;
77495;SDS011;66600;48.378;9.948;2023-01-10T03:06:20;1.85;;;1.30;;
77495;SDS011;66600;48.378;9.948;2023-01-10T03:11:26;2.25;;;1.48;;
77495;SDS011;66600;48.378;9.948;2023-01-10T03:14:05;2.33;;;1.23;;
77495;SDS011;66600;48.378;9.948;2023-01-10T03:16:44;1.58;;;1.17;;
77495;SDS011;66600;48.378;9.948;2023-01-10T03:19:14;2.55;;;1.48;;
77495;SDS011;66600;48.378;9.948;2023-01-10T03:21:45;3.08;;;1.40;;
77495;SDS011;66600;48.378;9.948;2023-01-10T03:24:15;2.22;;;1.13;;
77495;SDS011;66600;48.378;9.948;2023-01-10T03:29:28;1.77;;;1.15;;
77495;SDS011;66600;48.378;9.948;2023-01-10T03:32:01;1.60;;;1.20;;
77495;SDS011;66600;48.378;9.948;2023-01-10T03:34:29;1.52;;;1.10;;
77495;SDS011;66600;48.378;9.948;2023-01-10T03:36:58;1.17;;;1.00;;
77495;SDS011;66600;48.378;9.948;2023-01-10T03:42:10;1.55;;;0.80;;
77495;SDS011;66600;48.378;9.948;2023-01-10T03:49:59;1.48;;;0.90;;
77495;SDS011;66600;48.378;9.948;2023-01-10T03:52:28;0.80;;;0.70;;
77495;SDS011;66600;48.378;9.948;2023-01-10T03:54:54;1.83;;;0.90;;
77495;SDS011;66600;48.378;9.948;2023-01-10T03:57:23;1.63;;;0.90;;
77495;SDS011;66600;48.378;9.948;2023-01-10T03:59:49;1.38;;;0.98;;
77495;SDS011;66600;48.378;9.948;2023-01-10T04:04:43;0.80;;;0.60;;
77495;SDS011;66600;48.378;9.948;2023-01-10T04:07:08;2.05;;;0.80;;
77495;SDS011;66600;48.378;9.948;2023-01-10T04:09:34;1.10;;;0.75;;
77495;SDS011;66600;48.378;9.948;2023-01-10T04:11:59;1.30;;;0.90;;
77495;SDS011;66600;48.378;9.948;2023-01-10T04:14:24;0.88;;;0.75;;
77495;SDS011;66600;48.378;9.948;2023-01-10T04:16:51;1.52;;;0.70;;
77495;SDS011;66600;48.378;9.948;2023-01-10T04:19:16;0.80;;;0.60;;
77495;SDS011;66600;48.378;9.948;2023-01-10T04:21:42;0.60;;;0.60;;
77495;SDS011;66600;48.378;9.948;2023-01-10T04:24:07;0.75;;;0.57;;
77495;SDS011;66600;48.378;9.948;2023-01-10T04:26:32;0.60;;;0.60;;
77495;SDS011;66600;48.378;9.948;2023-01-10T04:28:57;1.20;;;0.60;;
77495;SDS011;66600;48.378;9.948;2023-01-10T04:31:23;1.73;;;0.80;;
77495;SDS011;66600;48.378;9.948;2023-01-10T04:33:48;1.17;;;0.70;;
77495;SDS011;66600;48.378;9.948;2023-01-10T04:36:13;3.30;;;1.00;;
77495;SDS011;66600;48.378;9.948;2023-01-10T04:38:39;1.00;;;0.90;;
77495;SDS011;66600;48.378;9.948;2023-01-10T04:41:04;1.65;;;1.13;;
77495;SDS011;66600;48.378;9.948;2023-01-10T04:43:29;3.15;;;1.10;;
77495;SDS011;66600;48.378;9.948;2023-01-10T04:45:55;3.75;;;1.60;;
77495;SDS011;66600;48.378;9.948;2023-01-10T04:48:20;3.03;;;1.50;;
77495;SDS011;66600;48.378;9.948;2023-01-10T04:50:51;2.28;;;1.50;;
77495;SDS011;66600;48.378;9.948;2023-01-10T04:53:18;4.78;;;1.92;;
77495;SDS011;66600;48.378;9.948;2023-01-10T04:55:44;3.90;;;1.95;;
77495;SDS011;66600;48.378;9.948;2023-01-10T04:58:10;4.50;;;2.28;;
77495;SDS011;66600;48.378;9.948;2023-01-10T05:00:36;5.63;;;2.38;;
77495;SDS011;66600;48.378;9.948;2023-01-10T05:03:01;3.22;;;2.20;;
77495;SDS011;66600;48.378;9.948;2023-01-10T05:05:27;4.55;;;2.15;;
77495;SDS011;66600;48.378;9.948;2023-01-10T05:07:53;5.53;;;2.30;;
77495;SDS011;66600;48.378;9.948;2023-01-10T05:10:18;4.18;;;2.10;;
77495;SDS011;66600;48.378;9.948;2023-01-10T05:12:44;4.75;;;2.80;;
77495;SDS011;66600;48.378;9.948;2023-01-10T05:15:10;5.82;;;2.80;;
77495;SDS011;66600;48.378;9.948;2023-01-10T05:17:36;3.55;;;2.05;;
77495;SDS011;66600;48.378;9.948;2023-01-10T05:20:01;6.32;;;2.33;;
77495;SDS011;66600;48.378;9.948;2023-01-10T05:22:27;5.07;;;2.00;;
77495;SDS011;66600;48.378;9.948;2023-01-10T05:24:52;7.97;;;2.72;;
77495;SDS011;66600;48.378;9.948;2023-01-10T05:27:17;5.47;;;2.30;;
77495;SDS011;66600;48.378;9.948;2023-01-10T05:29:43;5.22;;;2.40;;
77495;SDS011;66600;48.378;9.948;2023-01-10T05:32:08;6.47;;;2.72;;
77495;SDS011;66600;48.378;9.948;2023-01-10T05:34:33;6.15;;;2.45;;
77495;SDS011;66600;48.378;9.948;2023-01-10T05:36:59;3.90;;;2.47;;
77495;SDS011;66600;48.378;9.948;2023-01-10T05:39:24;6.20;;;2.63;;
77495;SDS011;66600;48.378;9.948;2023-01-10T05:41:50;5.30;;;2.38;;
77495;SDS011;66600;48.378;9.948;2023-01-10T05:44:15;5.25;;;2.22;;
77495;SDS011;66600;48.378;9.948;2023-01-10T05:46:40;3.25;;;1.92;;
77495;SDS011;66600;48.378;9.948;2023-01-10T05:49:06;4.07;;;1.75;;
77495;SDS011;66600;48.378;9.948;2023-01-10T05:51:31;3.85;;;1.95;;
77495;SDS011;66600;48.378;9.948;2023-01-10T05:53:56;4.95;;;2.20;;
77495;SDS011;66600;48.378;9.948;2023-01-10T05:56:22;3.78;;;1.90;;
77495;SDS011;66600;48.378;9.948;2023-01-10T05:58:48;6.57;;;1.98;;
77495;SDS011;66600;48.378;9.948;2023-01-10T06:01:14;2.95;;;1.50;;
77495;SDS011;66600;48.378;9.948;2023-01-10T06:03:39;3.08;;;1.92;;
77495;SDS011;66600;48.378;9.948;2023-01-10T06:06:04;4.25;;;1.90;;
77495;SDS011;66600;48.378;9.948;2023-01-10T06:08:30;4.78;;;2.10;;
77495;SDS011;66600;48.378;9.948;2023-01-10T06:10:55;3.78;;;1.80;;
77495;SDS011;66600;48.378;9.948;2023-01-10T06:13:21;3.20;;;1.35;;
77495;SDS011;66600;48.378;9.948;2023-01-10T06:15:47;5.15;;;1.50;;
77495;SDS011;66600;48.378;9.948;2023-01-10T06:18:13;4.05;;;1.92;;
77495;SDS011;66600;48.378;9.948;2023-01-10T06:20:39;5.68;;;1.58;;
77495;SDS011;66600;48.378;9.948;2023-01-10T06:23:05;4.47;;;1.40;;
77495;SDS011;66600;48.378;9.948;2023-01-10T06:25:31;2.67;;;1.55;;
77495;SDS011;66600;48.378;9.948;2023-01-10T06:27:57;6.10;;;1.80;;
77495;SDS011;66600;48.378;9.948;2023-01-10T06:30:23;4.13;;;1.85;;
77495;SDS011;66600;48.378;9.948;2023-01-10T06:32:48;4.25;;;1.50;;
77495;SDS011;66600;48.378;9.948;2023-01-10T06:35:13;3.60;;;1.67;;
77495;SDS011;66600;48.378;9.948;2023-01-10T06:37:39;6.03;;;2.00;;
77495;SDS011;66600;48.378;9.948;2023-01-10T06:40:04;6.30;;;1.95;;
77495;SDS011;66600;48.378;9.948;2023-01-10T06:42:30;6.28;;;1.80;;
77495;SDS011;66600;48.378;9.948;2023-01-10T06:44:55;4.32;;;1.63;;
77495;SDS011;66600;48.378;9.948;2023-01-10T06:47:21;7.35;;;1.85;;
77495;SDS011;66600;48.378;9.948;2023-01-10T06:49:46;6.97;;;1.73;;
77495;SDS011;66600;48.378;9.948;2023-01-10T06:52:11;4.15;;;1.92;;
77495;SDS011;66600;48.378;9.948;2023-01-10T06:54:37;4.13;;;1.63;;
77495;SDS011;66600;48.378;9.948;2023-01-10T06:57:02;4.65;;;1.83;;
77495;SDS011;66600;48.378;9.948;2023-01-10T06:59:28;3.13;;;1.27;;
77495;SDS011;66600;48.378;9.948;2023-01-10T07:01:53;3.72;;;1.42;;
77495;SDS011;66600;48.378;9.948;2023-01-10T07:04:19;4.60;;;1.77;;
77495;SDS011;66600;48.378;9.948;2023-01-10T07:06:44;4.28;;;1.63;;
77495;SDS011;66600;48.378;9.948;2023-01-10T07:09:09;5.30;;;2.20;;
77495;SDS011;66600;48.378;9.948;2023-01-10T07:25:04;7.13;;;2.15;;
77495;SDS011;66600;48.378;9.948;2023-01-10T07:27:30;4.50;;;2.00;;
77495;SDS011;66600;48.378;9.948;2023-01-10T07:29:56;4.85;;;1.95;;
77495;SDS011;66600;48.378;9.948;2023-01-10T07:32:22;6.57;;;2.80;;
77495;SDS011;66600;48.378;9.948;2023-01-10T07:34:47;5.18;;;2.20;;
77495;SDS011;66600;48.378;9.948;2023-01-10T07:37:12;6.30;;;2.03;;
77495;SDS011;66600;48.378;9.948;2023-01-10T07:39:38;6.22;;;2.20;;
77495;SDS011;66600;48.378;9.948;2023-01-10T07:42:03;8.20;;;2.03;;
77495;SDS011;66600;48.378;9.948;2023-01-10T07:44:28;11.60;;;2.30;;
77495;SDS011;66600;48.378;9.948;2023-01-10T07:46:54;5.13;;;2.00;;
77495;SDS011;66600;48.378;9.948;2023-01-10T07:49:19;6.20;;;1.90;;
77495;SDS011;66600;48.378;9.948;2023-01-10T07:51:44;5.70;;;2.20;;
77495;SDS011;66600;48.378;9.948;2023-01-10T07:54:10;3.92;;;1.83;;
77495;SDS011;66600;48.378;9.948;2023-01-10T07:56:35;5.28;;;2.10;;
77495;SDS011;66600;48.378;9.948;2023-01-10T07:59:01;8.20;;;2.17;;
77495;SDS011;66600;48.378;9.948;2023-01-10T08:01:27;7.18;;;2.17;;
77495;SDS011;66600;48.378;9.948;2023-01-10T08:03:53;7.55;;;3.05;;
77495;SDS011;66600;48.378;9.948;2023-01-10T08:06:18;9.07;;;2.33;;
77495;SDS011;66600;48.378;9.948;2023-01-10T08:08:44;7.78;;;2.50;;
77495;SDS011;66600;48.378;9.948;2023-01-10T08:11:10;5.13;;;2.30;;
77495;SDS011;66600;48.378;9.948;2023-01-10T08:13:35;10.27;;;2.60;;
77495;SDS011;66600;48.378;9.948;2023-01-10T08:16:03;10.18;;;2.30;;
77495;SDS011;66600;48.378;9.948;2023-01-10T08:18:29;9.60;;;2.10;;
77495;SDS011;66600;48.378;9.948;2023-01-10T08:20:55;7.53;;;2.28;;
77495;SDS011;66600;48.378;9.948;2023-01-10T08:23:20;8.10;;;2.20;;
77495;SDS011;66600;48.378;9.948;2023-01-10T08:25:46;3.88;;;1.90;;
77495;SDS011;66600;48.378;9.948;2023-01-10T08:28:11;8.20;;;2.00;;
77495;SDS011;66600;48.378;9.948;2023-01-10T08:30:37;7.05;;;2.13;;
77495;SDS011;66600;48.378;9.948;2023-01-10T08:33:04;8.15;;;1.90;;
77495;SDS011;66600;48.378;9.948;2023-01-10T08:35:35;7.72;;;1.75;;
77495;SDS011;66600;48.378;9.948;2023-01-10T08:38:04;5.82;;;2.35;;
77495;SDS011;66600;48.378;9.948;2023-01-10T08:40:29;6.97;;;1.85;;
77495;SDS011;66600;48.378;9.948;2023-01-10T08:42:58;5.60;;;2.00;;
77495;SDS011;66600;48.378;9.948;2023-01-10T08:45:25;7.25;;;1.90;;
77495;SDS011;66600;48.378;9.948;2023-01-10T08:47:51;7.97;;;2.30;;
77495;SDS011;66600;48.378;9.948;2023-01-10T08:50:17;6.30;;;2.10;;
77495;SDS011;66600;48.378;9.948;2023-01-10T08:52:43;7.35;;;2.08;;
77495;SDS011;66600;48.378;9.948;2023-01-10T08:55:08;5.95;;;1.90;;
77495;SDS011;66600;48.378;9.948;2023-01-10T08:57:34;9.68;;;1.95;;
77495;SDS011;66600;48.378;9.948;2023-01-10T08:59:59;8.10;;;2.38;;
77495;SDS011;66600;48.378;9.948;2023-01-10T09:02:24;6.70;;;2.00;;
77495;SDS011;66600;48.378;9.948;2023-01-10T09:04:49;6.15;;;2.05;;
77495;SDS011;66600;48.378;9.948;2023-01-10T09:07:15;6.68;;;2.20;;
77495;SDS011;66600;48.378;9.948;2023-01-10T09:09:40;8.65;;;2.35;;
77495;SDS011;66600;48.378;9.948;2023-01-10T09:12:05;9.07;;;2.30;;
77495;SDS011;66600;48.378;9.948;2023-01-10T09:14:51;6.63;;;2.17;;
77495;SDS011;66600;48.378;9.948;2023-01-10T09:17:16;5.22;;;2.10;;
77495;SDS011;66600;48.378;9.948;2023-01-10T09:19:41;9.07;;;2.92;;
77495;SDS011;66600;48.378;9.948;2023-01-10T09:22:07;7.40;;;2.10;;
77495;SDS011;66600;48.378;9.948;2023-01-10T09:24:33;6.53;;;2.17;;
77495;SDS011;66600;48.378;9.948;2023-01-10T09:27:01;6.85;;;2.50;;
77495;SDS011;66600;48.378;9.948;2023-01-10T09:29:27;8.35;;;2.80;;
77495;SDS011;66600;48.378;9.948;2023-01-10T09:31:52;10.63;;;3.28;;
77495;SDS011;66600;48.378;9.948;2023-01-10T09:34:17;7.25;;;2.92;;
77495;SDS011;66600;48.378;9.948;2023-01-10T09:36:42;6.72;;;2.67;;
77495;SDS011;66600;48.378;9.948;2023-01-10T09:39:08;8.25;;;2.25;;
77495;SDS011;66600;48.378;9.948;2023-01-10T09:41:39;10.43;;;2.33;;
77495;SDS011;66600;48.378;9.948;2023-01-10T09:44:24;7.28;;;2.00;;
77495;SDS011;66600;48.378;9.948;2023-01-10T09:52:22;7.40;;;2.40;;
77495;SDS011;66600;48.378;9.948;2023-01-10T09:54:55;6.88;;;2.47;;
77495;SDS011;66600;48.378;9.948;2023-01-10T09:57:22;6.18;;;2.40;;
77495;SDS011;66600;48.378;9.948;2023-01-10T09:59:48;5.25;;;2.13;;
77495;SDS011;66600;48.378;9.948;2023-01-10T10:04:59;7.70;;;3.53;;
77495;SDS011;66600;48.378;9.948;2023-01-10T10:07:40;6.68;;;2.70;;
77495;SDS011;66600;48.378;9.948;2023-01-10T10:10:06;7.45;;;2.17;;
77495;SDS011;66600;48.378;9.948;2023-01-10T10:12:40;6.78;;;2.20;;
77495;SDS011;66600;48.378;9.948;2023-01-10T10:39:51;5.90;;;2.80;;
77495;SDS011;66600;48.378;9.948;2023-01-10T10:42:20;6.93;;;2.20;;
77495;SDS011;66600;48.378;9.948;2023-01-10T10:44:50;5.45;;;2.78;;
77495;SDS011;66600;48.378;9.948;2023-01-10T10:47:17;9.30;;;2.63;;
77495;SDS011;66600;48.378;9.948;2023-01-10T10:49:55;5.38;;;2.40;;
77495;SDS011;66600;48.378;9.948;2023-01-10T10:52:30;7.78;;;2.50;;
77495;SDS011;66600;48.378;9.948;2023-01-10T10:54:59;4.38;;;2.20;;
77495;SDS011;66600;48.378;9.948;2023-01-10T10:57:26;6.28;;;2.08;;
77495;SDS011;66600;48.378;9.948;2023-01-10T10:59:53;6.45;;;2.28;;
77495;SDS011;66600;48.378;9.948;2023-01-10T11:02:23;4.47;;;1.50;;
77495;SDS011;66600;48.378;9.948;2023-01-10T11:05:02;3.33;;;1.60;;
77495;SDS011;66600;48.378;9.948;2023-01-10T11:07:31;3.60;;;1.65;;
77495;SDS011;66600;48.378;9.948;2023-01-10T11:09:59;2.53;;;1.60;;
77495;SDS011;66600;48.378;9.948;2023-01-10T11:12:43;5.85;;;1.95;;
77495;SDS011;66600;48.378;9.948;2023-01-10T11:18:08;7.82;;;1.70;;
77495;SDS011;66600;48.378;9.948;2023-01-10T11:20:36;6.97;;;1.63;;
77495;SDS011;66600;48.378;9.948;2023-01-10T11:23:02;2.75;;;1.35;;
77495;SDS011;66600;48.378;9.948;2023-01-10T11:25:28;2.60;;;1.50;;
77495;SDS011;66600;48.378;9.948;2023-01-10T11:27:54;8.13;;;1.52;;
77495;SDS011;66600;48.378;9.948;2023-01-10T11:30:22;5.05;;;1.75;;
77495;SDS011;66600;48.378;9.948;2023-01-10T11:32:54;5.60;;;2.03;;
77495;SDS011;66600;48.378;9.948;2023-01-10T11:35:25;5.75;;;1.70;;
77495;SDS011;66600;48.378;9.948;2023-01-10T11:37:58;3.92;;;1.88;;
77495;SDS011;66600;48.378;9.948;2023-01-10T11:40:26;7.38;;;2.03;;
77495;SDS011;66600;48.378;9.948;2023-01-10T11:42:52;5.28;;;1.63;;
77495;SDS011;66600;48.378;9.948;2023-01-10T11:47:45;5.88;;;1.88;;
77495;SDS011;66600;48.378;9.948;2023-01-10T11:50:18;4.68;;;1.52;;
77495;SDS011;66600;48.378;9.948;2023-01-10T11:52:45;4.80;;;1.35;;
77495;SDS011;66600;48.378;9.948;2023-01-10T11:55:19;4.28;;;1.63;;
77495;SDS011;66600;48.378;9.948;2023-01-10T11:57:54;4.95;;;1.20;;
77495;SDS011;66600;48.378;9.948;2023-01-10T12:00:19;5.20;;;1.75;;
77495;SDS011;66600;48.378;9.948;2023-01-10T12:02:45;3.85;;;1.50;;
77495;SDS011;66600;48.378;9.948;2023-01-10T12:05:18;4.55;;;1.30;;
77495;SDS011;66600;48.378;9.948;2023-01-10T12:07:55;4.35;;;1.60;;
77495;SDS011;66600;48.378;9.948;2023-01-10T12:10:22;5.07;;;1.20;;
77495;SDS011;66600;48.378;9.948;2023-01-10T12:12:56;4.80;;;1.25;;
77495;SDS011;66600;48.378;9.948;2023-01-10T12:15:27;4.95;;;1.50;;
77495;SDS011;66600;48.378;9.948;2023-01-10T12:17:54;2.33;;;1.20;;
77495;SDS011;66600;48.378;9.948;2023-01-10T12:20:23;3.67;;;1.10;;
77495;SDS011;66600;48.378;9.948;2023-01-10T12:22:53;4.82;;;1.30;;
77495;SDS011;66600;48.378;9.948;2023-01-10T12:25:26;3.45;;;1.30;;
77495;SDS011;66600;48.378;9.948;2023-01-10T12:27:53;5.03;;;1.27;;
77495;SDS011;66600;48.378;9.948;2023-01-10T12:30:37;3.33;;;1.63;;
77495;SDS011;66600;48.378;9.948;2023-01-10T12:33:11;5.05;;;1.27;;
77495;SDS011;66600;48.378;9.948;2023-01-10T12:41:29;5.05;;;1.30;;
77495;SDS011;66600;48.378;9.948;2023-01-10T12:44:45;4.65;;;1.50;;
77495;SDS011;66600;48.378;9.948;2023-01-10T12:47:28;5.10;;;1.33;;
77495;SDS011;66600;48.378;9.948;2023-01-10T12:50:14;4.05;;;1.20;;
77495;SDS011;66600;48.378;9.948;2023-01-10T12:52:51;4.50;;;1.35;;
77495;SDS011;66600;48.378;9.948;2023-01-10T12:55:23;4.93;;;1.10;;
77495;SDS011;66600;48.378;9.948;2023-01-10T12:57:53;4.57;;;1.70;;
77495;SDS011;66600;48.378;9.948;2023-01-10T13:00:23;2.15;;;1.10;;
77495;SDS011;66600;48.378;9.948;2023-01-10T13:02:53;2.42;;;1.20;;
77495;SDS011;66600;48.378;9.948;2023-01-10T13:05:23;4.97;;;1.40;;
77495;SDS011;66600;48.378;9.948;2023-01-10T13:10:17;3.40;;;1.40;;
77495;SDS011;66600;48.378;9.948;2023-01-10T13:13:19;4.38;;;1.45;;
77495;SDS011;66600;48.378;9.948;2023-01-10T13:15:52;6.18;;;1.77;;
77495;SDS011;66600;48.378;9.948;2023-01-10T13:18:29;5.70;;;1.52;;
77495;SDS011;66600;48.378;9.948;2023-01-10T13:21:06;4.07;;;1.60;;
77495;SDS011;66600;48.378;9.948;2023-01-10T13:26:16;3.78;;;1.40;;
77495;SDS011;66600;48.378;9.948;2023-01-10T13:28:52;2.45;;;1.33;;
77495;SDS011;66600;48.378;9.948;2023-01-10T13:31:30;3.90;;;1.50;;
77495;SDS011;66600;48.378;9.948;2023-01-10T13:34:01;6.97;;;1.40;;
77495;SDS011;66600;48.378;9.948;2023-01-10T13:36:36;3.83;;;1.15;;
77495;SDS011;66600;48.378;9.948;2023-01-10T13:39:05;2.47;;;0.88;;
77495;SDS011;66600;48.378;9.948;2023-01-10T13:52:47;3.15;;;1.20;;
77495;SDS011;66600;48.378;9.948;2023-01-10T13:55:20;4.80;;;1.08;;
77495;SDS011;66600;48.378;9.948;2023-01-10T13:58:02;3.65;;;1.10;;
77495;SDS011;66600;48.378;9.948;2023-01-10T14:06:51;3.65;;;0.90;;
77495;SDS011;66600;48.378;9.948;2023-01-10T14:08:56;2.28;;;0.80;;
77495;SDS011;66600;48.378;9.948;2023-01-10T14:14:14;2.60;;;0.88;;
77495;SDS011;66600;48.378;9.948;2023-01-10T14:16:47;3.67;;;1.02;;
77495;SDS011;66600;48.378;9.948;2023-01-10T14:19:28;2.17;;;0.60;;
77495;SDS011;66600;48.378;9.948;2023-01-10T14:21:55;2.85;;;0.85;;
77495;SDS011;66600;48.378;9.948;2023-01-10T14:24:42;2.45;;;1.00;;
77495;SDS011;66600;48.378;9.948;2023-01-10T14:27:15;0.98;;;0.60;;
77495;SDS011;66600;48.378;9.948;2023-01-10T14:30:15;3.03;;;0.88;;
77495;SDS011;66600;48.378;9.948;2023-01-10T14:32:39;3.72;;;1.23;;
77495;SDS011;66600;48.378;9.948;2023-01-10T14:35:08;3.90;;;0.90;;
77495;SDS011;66600;48.378;9.948;2023-01-10T14:37:44;4.78;;;0.90;;
77495;SDS011;66600;48.378;9.948;2023-01-10T14:40:19;3.25;;;1.00;;
77495;SDS011;66600;48.378;9.948;2023-01-10T14:43:00;2.75;;;0.95;;
77495;SDS011;66600;48.378;9.948;2023-01-10T14:54:01;6.20;;;1.27;;
77495;SDS011;66600;48.378;9.948;2023-01-10T14:56:38;3.70;;;1.40;;
77495;SDS011;66600;48.378;9.948;2023-01-10T14:59:15;3.72;;;1.40;;
77495;SDS011;66600;48.378;9.948;2023-01-10T15:01:53;4.30;;;1.33;;
77495;SDS011;66600;48.378;9.948;2023-01-10T15:04:21;8.10;;;1.23;;
77495;SDS011;66600;48.378;9.948;2023-01-10T15:09:16;4.30;;;1.75;;
77495;SDS011;66600;48.378;9.948;2023-01-10T15:11:41;12.27;;;6.00;;
77495;SDS011;66600;48.378;9.948;2023-01-10T15:14:08;22.30;;;8.77;;
77495;SDS011;66600;48.378;9.948;2023-01-10T15:16:35;19.83;;;10.18;;
77495;SDS011;66600;48.378;9.948;2023-01-10T15:19:01;18.63;;;9.00;;
77495;SDS011;66600;48.378;9.948;2023-01-10T15:21:26;24.92;;;10.73;;
77495;SDS011;66600;48.378;9.948;2023-01-10T15:23:52;24.73;;;9.77;;
77495;SDS011;66600;48.378;9.948;2023-01-10T15:29:04;14.20;;;5.70;;
77495;SDS011;66600;48.378;9.948;2023-01-10T15:31:35;7.03;;;2.80;;
77495;SDS011;66600;48.378;9.948;2023-01-10T15:34:05;6.88;;;2.38;;
77495;SDS011;66600;48.378;9.948;2023-01-10T15:36:40;13.50;;;4.35;;
77495;SDS011;66600;48.378;9.948;2023-01-10T15:39:17;7.10;;;2.85;;
77495;SDS011;66600;48.378;9.948;2023-01-10T15:41:45;7.60;;;3.42;;
77495;SDS011;66600;48.378;9.948;2023-01-10T15:44:20;9.57;;;3.65;;
77495;SDS011;66600;48.378;9.948;2023-01-10T15:46:54;5.80;;;2.15;;
77495;SDS011;66600;48.378;9.948;2023-01-10T15:49:22;7.03;;;2.42;;
77495;SDS011;66600;48.378;9.948;2023-01-10T15:51:48;6.93;;;2.33;;
77495;SDS011;66600;48.378;9.948;2023-01-10T15:56:52;7.63;;;2.37;;
77495;SDS011;66600;48.378;9.948;2023-01-10T15:59:31;6.13;;;2.53;;
77495;SDS011;66600;48.378;9.948;2023-01-10T16:04:35;5.15;;;2.58;;
77495;SDS011;66600;48.378;9.948;2023-01-10T16:07:11;6.40;;;3.10;;
77495;SDS011;66600;48.378;9.948;2023-01-10T16:12:36;5.60;;;3.08;;
77495;SDS011;66600;48.378;9.948;2023-01-10T16:15:23;5.43;;;2.67;;
77495;SDS011;66600;48.378;9.948;2023-01-10T16:17:50;8.02;;;2.40;;
77495;SDS011;66600;48.378;9.948;2023-01-10T16:20:17;5.22;;;2.78;;
77495;SDS011;66600;48.378;9.948;2023-01-10T16:22:49;5.50;;;2.30;;
77495;SDS011;66600;48.378;9.948;2023-01-10T16:25:17;7.28;;;2.55;;
77495;SDS011;66600;48.378;9.948;2023-01-10T16:27:50;7.13;;;3.03;;
77495;SDS011;66600;48.378;9.948;2023-01-10T16:30:28;7.78;;;3.47;;
77495;SDS011;66600;48.378;9.948;2023-01-10T16:33:04;9.35;;;3.42;;
77495;SDS011;66600;48.378;9.948;2023-01-10T16:35:34;7.40;;;3.40;;
77495;SDS011;66600;48.378;9.948;2023-01-10T16:38:00;8.80;;;3.45;;
77495;SDS011;66600;48.378;9.948;2023-01-10T16:42:52;6.97;;;2.40;;
77495;SDS011;66600;48.378;9.948;2023-01-10T16:45:37;7.43;;;2.10;;
77495;SDS011;66600;48.378;9.948;2023-01-10T16:48:03;4.88;;;2.20;;
77495;SDS011;66600;48.378;9.948;2023-01-10T16:50:29;4.40;;;2.30;;
77495;SDS011;66600;48.378;9.948;2023-01-10T16:52:55;6.50;;;2.70;;
77495;SDS011;66600;48.378;9.948;2023-01-10T16:55:22;9.27;;;3.05;;
77495;SDS011;66600;48.378;9.948;2023-01-10T16:57:53;7.20;;;2.40;;
77495;SDS011;66600;48.378;9.948;2023-01-10T17:00:18;6.65;;;2.30;;
77495;SDS011;66600;48.378;9.948;2023-01-10T17:02:44;13.32;;;6.53;;
77495;SDS011;66600;48.378;9.948;2023-01-10T17:05:09;7.57;;;2.83;;
77495;SDS011;66600;48.378;9.948;2023-01-10T17:07:35;7.25;;;2.40;;
77495;SDS011;66600;48.378;9.948;2023-01-10T17:10:01;9.90;;;2.75;;
77495;SDS011;66600;48.378;9.948;2023-01-10T17:12:29;6.00;;;2.22;;
77495;SDS011;66600;48.378;9.948;2023-01-10T17:14:58;5.72;;;2.75;;
77495;SDS011;66600;48.378;9.948;2023-01-10T17:17:23;5.28;;;2.67;;
77495;SDS011;66600;48.378;9.948;2023-01-10T17:19:49;7.78;;;2.67;;
77495;SDS011;66600;48.378;9.948;2023-01-10T17:22:14;6.32;;;2.80;;